Time;durP1;ratioP1;P1;durP2;ratioP2;P2;SDS_P1;SDS_P2;PMS_P1;PMS_P2;Temp;Humidity;BMP_temperature;BMP_pressure;BME280_temperature;BME280_humidity;BME280_pressure;Samples;Min_cycle;Max_cycle;Signal;HPM_P1;HPM_P2
2021/09/25 00:02:59;;;;;;;;;;;8.90;99.90;;;;;;8362159;28;20071;-64
2021/09/25 00:07:01;;;;;;;;;;;8.80;99.90;;;;;;8363645;28;19909;-64
2021/09/25 00:11:02;;;;;;;;;;;8.80;99.90;;;;;;8363657;28;20000;-64
2021/09/25 00:15:03;;;;;;;;;;;8.80;99.90;;;;;;8362591;28;20283;-64
2021/09/25 00:19:03;;;;;;;;;;;8.70;99.90;;;;;;8364573;28;19921;-65
2021/09/25 00:23:05;;;;;;;;;;;8.90;99.90;;;;;;8392576;28;20058;-64
2021/09/25 00:27:05;;;;;;;;;;;9.00;99.90;;;;;;8392099;28;20355;-64
2021/09/25 00:31:05;;;;;;;;;;;8.90;99.90;;;;;;8393568;28;19916;-64
2021/09/25 00:35:07;;;;;;;;;;;8.90;99.90;;;;;;8393308;28;20293;-64
2021/09/25 00:39:07;;;;;;;;;;;8.70;99.90;;;;;;8395419;28;20275;-65
2021/09/25 00:43:08;;;;;;;;;;;8.70;99.90;;;;;;8395596;28;19909;-64
2021/09/25 00:47:08;;;;;;;;;;;8.90;99.90;;;;;;8394549;28;19920;-64
2021/09/25 00:51:09;;;;;;;;;;;9.00;99.90;;;;;;8372719;28;19927;-64
2021/09/25 00:55:10;;;;;;;;;;;9.10;99.90;;;;;;8376815;28;19930;-64
2021/09/25 00:59:11;;;;;;;;;;;8.80;99.90;;;;;;8383056;28;20526;-64
2021/09/25 01:03:11;;;;;;;;;;;8.50;99.90;;;;;;8392460;28;19990;-64
2021/09/25 01:07:12;;;;;;;;;;;8.40;99.90;;;;;;8394460;28;19924;-64
2021/09/25 01:11:13;;;;;;;;;;;8.30;99.90;;;;;;8394965;28;19917;-64
2021/09/25 01:15:14;;;;;;;;;;;8.40;99.90;;;;;;8394713;28;19912;-64
2021/09/25 01:19:14;;;;;;;;;;;8.20;99.90;;;;;;8376315;28;19916;-64
2021/09/25 01:23:15;;;;;;;;;;;8.30;99.90;;;;;;8361340;28;19920;-64
2021/09/25 01:27:15;;;;;;;;;;;8.30;99.90;;;;;;8359827;28;20042;-64
2021/09/25 01:31:16;;;;;;;;;;;8.60;99.90;;;;;;8361312;28;19924;-64
2021/09/25 01:35:18;;;;;;;;;;;8.50;99.90;;;;;;8360469;28;19920;-64
2021/09/25 01:39:18;;;;;;;;;;;8.50;99.90;;;;;;8361315;28;20302;-64
2021/09/25 01:43:19;;;;;;;;;;;8.20;99.90;;;;;;8360760;28;19909;-64
2021/09/25 01:47:20;;;;;;;;;;;8.30;99.90;;;;;;8365714;28;19916;-64
2021/09/25 01:51:20;;;;;;;;;;;8.10;99.90;;;;;;8365764;28;20298;-63
2021/09/25 01:55:20;;;;;;;;;;;8.30;99.90;;;;;;8370797;28;19967;-63
2021/09/25 01:59:21;;;;;;;;;;;8.20;99.90;;;;;;8359207;28;19909;-63
2021/09/25 02:03:21;;;;;;;;;;;8.10;99.90;;;;;;8359731;28;19916;-63
2021/09/25 02:07:22;;;;;;;;;;;8.00;99.90;;;;;;8358673;28;19962;-63
2021/09/25 02:11:23;;;;;;;;;;;7.90;99.90;;;;;;8359911;28;19919;-64
2021/09/25 02:15:23;;;;;;;;;;;7.80;99.90;;;;;;8358487;28;19909;-64
2021/09/25 02:19:24;;;;;;;;;;;8.00;99.90;;;;;;8359313;28;19916;-63
2021/09/25 02:23:24;;;;;;;;;;;7.90;99.90;;;;;;8359619;28;19920;-63
2021/09/25 02:27:25;;;;;;;;;;;7.90;99.90;;;;;;8357331;28;19908;-63
2021/09/25 02:31:25;;;;;;;;;;;7.60;99.90;;;;;;8359628;28;19938;-63
2021/09/25 02:35:26;;;;;;;;;;;7.70;99.90;;;;;;8359387;28;19927;-64
2021/09/25 02:39:27;;;;;;;;;;;7.50;99.90;;;;;;8359194;28;19917;-63
2021/09/25 02:43:28;;;;;;;;;;;7.50;99.90;;;;;;8359214;28;19978;-63
2021/09/25 02:47:28;;;;;;;;;;;7.40;99.90;;;;;;8357613;28;19909;-64
2021/09/25 02:51:28;;;;;;;;;;;7.30;99.90;;;;;;8359244;28;19919;-63
2021/09/25 02:55:29;;;;;;;;;;;7.40;99.90;;;;;;8358846;28;19992;-63
2021/09/25 02:59:29;;;;;;;;;;;7.30;99.90;;;;;;8359121;28;19967;-63
2021/09/25 03:03:30;;;;;;;;;;;7.60;99.90;;;;;;8358666;28;19916;-63
2021/09/25 03:07:30;;;;;;;;;;;7.70;99.90;;;;;;8358574;28;19917;-63
2021/09/25 03:11:31;;;;;;;;;;;7.60;99.90;;;;;;8358615;28;19996;-64
2021/09/25 03:15:32;;;;;;;;;;;7.50;99.90;;;;;;8357903;28;19917;-64
2021/09/25 03:19:32;;;;;;;;;;;7.50;99.90;;;;;;8357954;28;19909;-63
2021/09/25 03:23:33;;;;;;;;;;;7.70;99.90;;;;;;8357842;28;19982;-63
2021/09/25 03:27:34;;;;;;;;;;;7.50;99.90;;;;;;8358411;28;19909;-64
2021/09/25 03:31:35;;;;;;;;;;;7.20;99.90;;;;;;8364236;28;20401;-64
2021/09/25 03:35:35;;;;;;;;;;;7.20;99.90;;;;;;8369682;28;19909;-63
2021/09/25 03:39:36;;;;;;;;;;;7.20;99.90;;;;;;8393222;28;20002;-64
2021/09/25 03:43:36;;;;;;;;;;;7.10;99.90;;;;;;8396259;28;19959;-63
2021/09/25 03:47:37;;;;;;;;;;;7.20;99.90;;;;;;8392433;28;20031;-63
2021/09/25 03:51:37;;;;;;;;;;;7.10;99.90;;;;;;8364453;28;19939;-63
2021/09/25 03:55:38;;;;;;;;;;;7.50;99.90;;;;;;8363975;28;19943;-64
2021/09/25 03:59:38;;;;;;;;;;;7.50;99.90;;;;;;8364094;28;19962;-63
2021/09/25 04:03:39;;;;;;;;;;;7.30;99.90;;;;;;8363599;28;20049;-63
2021/09/25 04:07:39;;;;;;;;;;;7.30;99.90;;;;;;8363537;28;19913;-64
2021/09/25 04:11:40;;;;;;;;;;;7.40;99.90;;;;;;8362391;28;19916;-64
2021/09/25 04:15:40;;;;;;;;;;;7.30;99.90;;;;;;8363512;28;19909;-64
2021/09/25 04:19:41;;;;;;;;;;;7.50;99.90;;;;;;8363338;28;19909;-63
2021/09/25 04:23:41;;;;;;;;;;;7.30;99.90;;;;;;8363236;28;19917;-64
2021/09/25 04:27:41;;;;;;;;;;;7.30;99.90;;;;;;8363104;28;19909;-64
2021/09/25 04:31:44;;;;;;;;;;;7.00;99.90;;;;;;8363801;28;19913;-64
2021/09/25 04:35:45;;;;;;;;;;;6.90;99.90;;;;;;8361758;28;19943;-64
2021/09/25 04:39:45;;;;;;;;;;;6.90;99.90;;;;;;8361383;28;20334;-63
2021/09/25 04:43:45;;;;;;;;;;;7.00;99.90;;;;;;8363082;28;20417;-63
2021/09/25 04:47:46;;;;;;;;;;;7.10;99.90;;;;;;8362321;28;19921;-63
2021/09/25 04:51:46;;;;;;;;;;;7.10;99.90;;;;;;8362582;28;19921;-64
2021/09/25 04:55:47;;;;;;;;;;;6.90;99.90;;;;;;8360987;28;19920;-63
2021/09/25 04:59:47;;;;;;;;;;;6.80;99.90;;;;;;8372596;28;20510;-63
2021/09/25 05:03:48;;;;;;;;;;;6.80;99.90;;;;;;8376123;28;19924;-64
2021/09/25 05:07:49;;;;;;;;;;;6.70;99.90;;;;;;8375626;28;20027;-64
2021/09/25 05:11:49;;;;;;;;;;;6.70;99.90;;;;;;8380246;28;19913;-63
2021/09/25 05:15:50;;;;;;;;;;;6.80;99.90;;;;;;8378454;28;19913;-63
2021/09/25 05:19:50;;;;;;;;;;;7.00;99.90;;;;;;8375953;28;19916;-63
2021/09/25 05:23:51;;;;;;;;;;;7.00;99.90;;;;;;8390131;28;19912;-63
2021/09/25 05:27:52;;;;;;;;;;;7.10;99.90;;;;;;8385204;28;19916;-63
2021/09/25 05:31:52;;;;;;;;;;;6.90;99.90;;;;;;8375992;28;19909;-64
2021/09/25 05:35:53;;;;;;;;;;;7.00;99.90;;;;;;8388198;28;19908;-63
2021/09/25 05:39:56;;;;;;;;;;;7.20;99.90;;;;;;8368608;28;19920;-64
2021/09/25 05:43:56;;;;;;;;;;;7.50;99.90;;;;;;8360376;28;20397;-63
2021/09/25 05:47:57;;;;;;;;;;;7.50;99.90;;;;;;8361233;28;19917;-64
2021/09/25 05:51:57;;;;;;;;;;;7.70;99.90;;;;;;8363309;28;20003;-63
2021/09/25 05:55:58;;;;;;;;;;;7.90;99.90;;;;;;8372200;28;19913;-63
2021/09/25 05:59:58;;;;;;;;;;;10.20;99.90;;;;;;8364802;28;19974;-62
2021/09/25 06:03:59;;;;;;;;;;;10.70;99.90;;;;;;8375037;28;19912;-63
2021/09/25 06:08:01;;;;;;;;;;;10.60;99.90;;;;;;8390375;28;19909;-63
2021/09/25 06:12:02;;;;;;;;;;;11.60;99.90;;;;;;8390656;28;19912;-63
2021/09/25 06:16:02;;;;;;;;;;;12.10;99.90;;;;;;8384776;28;19974;-63
2021/09/25 06:20:03;;;;;;;;;;;11.80;99.90;;;;;;8381383;28;19912;-63
2021/09/25 06:24:04;;;;;;;;;;;11.90;99.90;;;;;;8389983;28;19925;-63
2021/09/25 06:28:05;;;;;;;;;;;12.30;99.90;;;;;;8392419;28;19908;-63
2021/09/25 06:32:05;;;;;;;;;;;12.30;99.90;;;;;;8389515;28;19999;-63
2021/09/25 06:36:06;;;;;;;;;;;12.10;99.90;;;;;;8390992;28;19932;-63
2021/09/25 06:40:07;;;;;;;;;;;11.90;99.90;;;;;;8389897;28;20022;-63
2021/09/25 06:44:07;;;;;;;;;;;12.10;99.90;;;;;;8373405;28;19916;-63
2021/09/25 06:48:08;;;;;;;;;;;12.60;99.90;;;;;;8372966;28;20557;-63
2021/09/25 06:52:10;;;;;;;;;;;12.90;99.90;;;;;;8372286;28;20015;-63
2021/09/25 06:56:10;;;;;;;;;;;13.20;99.90;;;;;;8386153;28;19954;-63
2021/09/25 07:00:11;;;;;;;;;;;13.00;99.90;;;;;;8390908;28;20341;-63
2021/09/25 07:04:11;;;;;;;;;;;13.30;99.90;;;;;;8395295;28;19915;-64
2021/09/25 07:08:12;;;;;;;;;;;12.90;99.90;;;;;;8394293;28;20009;-64
2021/09/25 07:12:12;;;;;;;;;;;12.50;99.90;;;;;;8392627;28;19916;-64
2021/09/25 07:16:13;;;;;;;;;;;12.50;99.90;;;;;;8387599;28;20466;-64
2021/09/25 07:20:17;;;;;;;;;;;12.70;99.90;;;;;;8364426;28;19970;-64
2021/09/25 07:24:18;;;;;;;;;;;13.10;99.90;;;;;;8363578;28;19920;-62
2021/09/25 07:28:18;;;;;;;;;;;13.50;99.90;;;;;;8380375;28;19916;-63
2021/09/25 07:32:19;;;;;;;;;;;13.80;99.90;;;;;;8375942;28;19923;-63
2021/09/25 07:36:23;;;;;;;;;;;13.90;99.90;;;;;;8379321;28;19913;-63
2021/09/25 07:40:24;;;;;;;;;;;14.00;99.90;;;;;;8376882;28;19999;-64
2021/09/25 07:44:24;;;;;;;;;;;14.10;99.90;;;;;;8395261;28;19923;-63
2021/09/25 07:48:25;;;;;;;;;;;14.20;99.90;;;;;;8388590;28;19920;-63
2021/09/25 07:52:25;;;;;;;;;;;14.40;99.90;;;;;;8372083;28;19913;-64
2021/09/25 07:56:26;;;;;;;;;;;14.60;99.90;;;;;;8390085;28;19923;-63
2021/09/25 08:00:26;;;;;;;;;;;14.80;99.90;;;;;;8396825;28;19955;-64
2021/09/25 08:04:27;;;;;;;;;;;15.20;99.90;;;;;;8389360;28;19970;-64
2021/09/25 08:08:27;;;;;;;;;;;15.40;99.90;;;;;;8388355;28;19923;-64
2021/09/25 08:12:28;;;;;;;;;;;15.60;99.90;;;;;;8393532;28;19913;-64
2021/09/25 08:16:28;;;;;;;;;;;15.80;99.90;;;;;;8393241;28;19916;-64
2021/09/25 08:20:28;;;;;;;;;;;15.90;99.90;;;;;;8367620;28;19924;-64
2021/09/25 08:24:29;;;;;;;;;;;16.20;99.90;;;;;;8361786;28;19913;-64
2021/09/25 08:28:29;;;;;;;;;;;16.30;99.90;;;;;;8373174;28;19913;-65
2021/09/25 08:32:30;;;;;;;;;;;16.40;99.90;;;;;;8393095;28;19909;-64
2021/09/25 08:36:30;;;;;;;;;;;16.60;99.90;;;;;;8387670;28;20375;-64
2021/09/25 08:40:31;;;;;;;;;;;16.90;99.90;;;;;;8378578;28;20007;-64
2021/09/25 08:44:32;;;;;;;;;;;17.00;99.90;;;;;;8377198;28;20338;-64
2021/09/25 08:48:33;;;;;;;;;;;17.00;99.90;;;;;;8360723;28;20402;-64
2021/09/25 08:52:34;;;;;;;;;;;17.30;99.90;;;;;;8362452;28;19920;-64
2021/09/25 08:56:34;;;;;;;;;;;17.40;99.90;;;;;;8362065;28;19913;-64
2021/09/25 09:00:37;;;;;;;;;;;17.50;99.90;;;;;;8377002;28;19951;-64
2021/09/25 09:05:07;;;;;;;;;;;17.60;99.90;;;;;;8371194;28;19921;-64
2021/09/25 09:09:09;;;;;;;;;;;17.80;99.90;;;;;;8349088;28;19923;-64
2021/09/25 09:13:10;;;;;;;;;;;18.00;99.90;;;;;;8389911;28;19912;-64
2021/09/25 09:17:13;;;;;;;;;;;18.20;99.90;;;;;;8386111;28;19924;-65
2021/09/25 09:21:15;;;;;;;;;;;18.40;99.90;;;;;;8368313;28;19963;-65
2021/09/25 09:25:18;;;;;;;;;;;18.60;99.90;;;;;;8391744;28;19935;-65
2021/09/25 09:29:18;;;;;;;;;;;18.80;99.90;;;;;;8393042;28;19909;-65
2021/09/25 09:33:28;;;;;;;;;;;19.00;99.90;;;;;;8377681;28;20409;-65
2021/09/25 09:37:28;;;;;;;;;;;19.30;99.90;;;;;;8377936;28;19912;-65
2021/09/25 09:41:30;;;;;;;;;;;19.60;99.90;;;;;;8377122;28;19924;-65
2021/09/25 09:45:31;;;;;;;;;;;19.90;99.90;;;;;;8359960;28;19913;-65
2021/09/25 09:49:33;;;;;;;;;;;20.20;99.90;;;;;;8360035;28;20378;-65
2021/09/25 09:53:44;;;;;;;;;;;20.40;99.90;;;;;;8358835;28;19943;-65
2021/09/25 09:57:45;;;;;;;;;;;20.70;99.90;;;;;;8368434;28;19916;-65
2021/09/25 10:01:45;;;;;;;;;;;20.80;99.90;;;;;;8390652;28;19917;-65
2021/09/25 10:05:46;;;;;;;;;;;21.10;99.90;;;;;;8389132;28;20021;-65
2021/09/25 10:09:46;;;;;;;;;;;21.20;99.90;;;;;;8374504;28;19913;-65
2021/09/25 10:13:47;;;;;;;;;;;21.30;99.90;;;;;;8390127;28;20008;-65
2021/09/25 10:17:48;;;;;;;;;;;21.70;99.90;;;;;;8386197;28;19913;-65
2021/09/25 10:21:51;;;;;;;;;;;21.90;99.90;;;;;;8359561;28;19923;-65
2021/09/25 10:25:52;;;;;;;;;;;22.30;99.90;;;;;;8359263;28;20026;-65
2021/09/25 10:29:53;;;;;;;;;;;22.70;99.90;;;;;;8359691;28;19926;-65
2021/09/25 10:34:02;;;;;;;;;;;22.90;99.90;;;;;;8359668;28;19908;-65
2021/09/25 10:38:03;;;;;;;;;;;23.10;99.90;;;;;;8358347;28;19909;-65
2021/09/25 10:42:12;;;;;;;;;;;23.40;99.90;;;;;;8359281;28;19923;-65
2021/09/25 10:46:13;;;;;;;;;;;24.30;99.90;;;;;;8359246;28;20287;-65
2021/09/25 10:50:14;;;;;;;;;;;27.90;99.90;;;;;;8369393;28;19917;-65
2021/09/25 10:54:15;;;;;;;;;;;31.10;96.40;;;;;;8377457;28;19912;-66
2021/09/25 10:58:17;;;;;;;;;;;33.40;84.70;;;;;;8384824;28;19913;-66
2021/09/25 11:02:37;;;;;;;;;;;35.40;70.10;;;;;;8376742;28;19935;-65
2021/09/25 11:06:56;;;;;;;;;;;36.90;61.00;;;;;;8379874;28;19959;-66
2021/09/25 11:11:07;;;;;;;;;;;38.40;53.90;;;;;;8368426;28;20287;-65
2021/09/25 11:15:28;;;;;;;;;;;38.90;50.80;;;;;;8384324;28;19916;-66
2021/09/25 11:19:30;;;;;;;;;;;39.50;45.70;;;;;;8383521;28;19916;-66
2021/09/25 11:23:44;;;;;;;;;;;39.20;45.00;;;;;;8388685;28;19916;-67
2021/09/25 11:27:51;;;;;;;;;;;40.30;44.50;;;;;;8390741;28;19909;-65
2021/09/25 11:32:01;;;;;;;;;;;40.10;42.80;;;;;;8369116;28;20409;-66
2021/09/25 11:36:09;;;;;;;;;;;40.20;41.00;;;;;;8390042;28;19919;-65
2021/09/25 11:40:09;;;;;;;;;;;40.70;39.60;;;;;;8390796;28;19916;-65
2021/09/25 11:44:10;;;;;;;;;;;41.30;41.20;;;;;;8389803;28;19909;-66
2021/09/25 11:48:12;;;;;;;;;;;41.20;38.00;;;;;;8381079;28;19913;-66
2021/09/25 11:52:12;;;;;;;;;;;41.20;39.50;;;;;;8362690;28;20386;-65
2021/09/25 11:56:23;;;;;;;;;;;42.00;36.30;;;;;;8363565;28;19916;-65
2021/09/25 12:00:24;;;;;;;;;;;40.50;37.40;;;;;;8374411;28;19932;-66
2021/09/25 12:04:36;;;;;;;;;;;40.30;39.40;;;;;;8367137;28;19955;-66
2021/09/25 12:08:37;;;;;;;;;;;40.30;38.90;;;;;;8364998;28;19912;-65
2021/09/25 12:12:37;;;;;;;;;;;41.10;37.20;;;;;;8376854;28;20394;-65
2021/09/25 12:16:37;;;;;;;;;;;40.30;37.50;;;;;;8393178;28;19916;-65
2021/09/25 12:20:39;;;;;;;;;;;39.70;38.10;;;;;;8377976;28;19916;-65
2021/09/25 12:24:40;;;;;;;;;;;39.40;39.10;;;;;;8370718;28;19944;-65
2021/09/25 12:28:47;;;;;;;;;;;41.00;37.00;;;;;;8363163;28;19919;-65
2021/09/25 12:33:01;;;;;;;;;;;42.10;35.90;;;;;;8363434;28;19917;-65
2021/09/25 12:37:01;;;;;;;;;;;42.30;35.60;;;;;;8370239;28;19913;-65
2021/09/25 12:41:03;;;;;;;;;;;42.60;34.20;;;;;;8370264;28;19970;-65
2021/09/25 12:45:04;;;;;;;;;;;40.90;35.30;;;;;;8387369;28;19966;-65
2021/09/25 12:49:22;;;;;;;;;;;42.10;34.20;;;;;;8372311;28;20003;-65
2021/09/25 12:53:23;;;;;;;;;;;42.30;35.00;;;;;;8392419;28;20532;-65
2021/09/25 12:57:24;;;;;;;;;;;42.80;34.60;;;;;;8363594;28;19955;-65
2021/09/25 13:01:28;;;;;;;;;;;42.40;34.70;;;;;;8390378;28;19916;-65
2021/09/25 13:05:30;;;;;;;;;;;41.70;34.60;;;;;;8394099;28;19927;-65
2021/09/25 13:09:43;;;;;;;;;;;42.40;33.70;;;;;;8394564;28;19919;-65
2021/09/25 13:13:43;;;;;;;;;;;42.30;33.90;;;;;;8394268;28;19908;-65
2021/09/25 13:17:44;;;;;;;;;;;42.50;33.50;;;;;;8373437;28;19913;-66
2021/09/25 13:21:45;;;;;;;;;;;41.90;34.00;;;;;;8367217;28;19939;-65
2021/09/25 13:25:45;;;;;;;;;;;43.70;32.80;;;;;;8382533;28;19947;-65
2021/09/25 13:29:46;;;;;;;;;;;43.90;31.40;;;;;;8378882;28;20437;-65
2021/09/25 13:33:46;;;;;;;;;;;44.50;32.50;;;;;;8394234;28;19909;-65
2021/09/25 13:37:47;;;;;;;;;;;44.70;31.20;;;;;;8376602;28;20623;-66
2021/09/25 13:41:47;;;;;;;;;;;44.90;31.20;;;;;;8361188;28;19927;-65
2021/09/25 13:45:48;;;;;;;;;;;44.20;31.40;;;;;;8361001;28;19913;-65
2021/09/25 13:49:48;;;;;;;;;;;43.90;32.20;;;;;;8360680;28;20302;-65
2021/09/25 13:53:49;;;;;;;;;;;44.20;32.20;;;;;;8380401;28;19909;-65
2021/09/25 13:57:49;;;;;;;;;;;44.30;31.90;;;;;;8365104;28;20339;-66
2021/09/25 14:01:50;;;;;;;;;;;43.90;31.60;;;;;;8376545;28;20458;-65
2021/09/25 14:05:51;;;;;;;;;;;43.80;30.40;;;;;;8378303;28;19909;-65
2021/09/25 14:09:51;;;;;;;;;;;43.90;30.70;;;;;;8391531;28;19962;-65
2021/09/25 14:13:51;;;;;;;;;;;44.20;30.40;;;;;;8392043;28;20015;-66
2021/09/25 14:17:52;;;;;;;;;;;43.40;32.80;;;;;;8385538;28;19917;-66
2021/09/25 14:21:52;;;;;;;;;;;43.30;31.80;;;;;;8359141;28;19916;-65
2021/09/25 14:25:53;;;;;;;;;;;43.60;31.70;;;;;;8356961;28;19924;-66
2021/09/25 14:29:54;;;;;;;;;;;43.40;31.30;;;;;;8359267;28;19962;-66
2021/09/25 14:33:56;;;;;;;;;;;43.00;32.50;;;;;;8362611;28;22383;-66
2021/09/25 14:37:56;;;;;;;;;;;41.90;33.60;;;;;;8365792;28;20284;-66
2021/09/25 14:41:59;;;;;;;;;;;41.00;34.70;;;;;;8370503;28;20383;-66
2021/09/25 14:46:00;;;;;;;;;;;40.40;36.20;;;;;;8372285;28;20286;-66
2021/09/25 14:50:00;;;;;;;;;;;40.80;34.50;;;;;;8371300;28;19916;-66
2021/09/25 14:54:02;;;;;;;;;;;40.20;35.30;;;;;;8374690;28;19913;-65
2021/09/25 14:58:03;;;;;;;;;;;40.20;34.80;;;;;;8374506;28;19915;-66
2021/09/25 15:02:04;;;;;;;;;;;39.50;37.20;;;;;;8374822;28;19908;-65
2021/09/25 15:06:04;;;;;;;;;;;37.30;39.50;;;;;;8373323;28;19919;-66
2021/09/25 15:10:05;;;;;;;;;;;35.20;44.30;;;;;;8372937;28;20271;-65
2021/09/25 15:14:06;;;;;;;;;;;34.10;44.70;;;;;;8374652;28;19908;-65
2021/09/25 15:18:06;;;;;;;;;;;34.30;48.80;;;;;;8372729;28;20295;-66
2021/09/25 15:22:07;;;;;;;;;;;36.30;45.70;;;;;;8374352;28;19923;-66
2021/09/25 15:26:08;;;;;;;;;;;37.10;44.90;;;;;;8377997;28;20272;-66
2021/09/25 15:30:09;;;;;;;;;;;37.50;43.60;;;;;;8379099;28;19909;-66
2021/09/25 15:34:09;;;;;;;;;;;37.20;43.70;;;;;;8375402;28;19991;-66
2021/09/25 15:38:10;;;;;;;;;;;36.80;43.70;;;;;;8370101;28;19939;-66
2021/09/25 15:42:11;;;;;;;;;;;35.60;45.40;;;;;;8375293;28;19919;-66
2021/09/25 15:46:11;;;;;;;;;;;33.20;49.70;;;;;;8363357;28;20039;-65
2021/09/25 15:50:12;;;;;;;3.57;2.10;;;31.40;53.00;;;;;;8361603;28;20389;-65
2021/09/25 15:54:13;;;;;;;;;;;29.80;54.70;;;;;;8363800;28;20017;-65
2021/09/25 15:58:13;;;;;;;;;;;28.90;58.50;;;;;;8362612;28;19913;-65
2021/09/25 16:02:14;;;;;;;;;;;28.00;63.40;;;;;;8363105;28;19920;-65
2021/09/25 16:06:14;;;;;;;;;;;27.30;65.40;;;;;;8374077;28;19955;-65
2021/09/25 16:10:15;;;;;;;;;;;26.60;70.60;;;;;;8362986;28;19908;-65
2021/09/25 16:14:15;;;;;;;;;;;25.70;76.00;;;;;;8369394;28;19908;-65
2021/09/25 16:18:16;;;;;;;;;;;24.90;80.90;;;;;;8385186;28;19909;-65
2021/09/25 16:22:16;;;;;;;;;;;24.70;83.20;;;;;;8364173;28;20109;-65
2021/09/25 16:26:16;;;;;;;;;;;24.40;88.00;;;;;;8374320;28;19909;-65
2021/09/25 16:30:17;;;;;;;;;;;24.00;92.70;;;;;;8362866;28;19909;-65
2021/09/25 16:34:17;;;;;;;;;;;23.80;96.20;;;;;;8372095;28;19919;-65
2021/09/25 16:38:18;;;;;;;;;;;23.40;99.90;;;;;;8395185;28;19915;-65
2021/09/25 16:42:18;;;;;;;;;;;23.00;99.90;;;;;;8375176;28;19962;-65
2021/09/25 16:46:20;;;;;;;;;;;22.60;99.90;;;;;;8371657;28;19916;-65
2021/09/25 16:50:21;;;;;;;;;;;22.20;99.90;;;;;;8366602;28;19909;-65
2021/09/25 16:54:21;;;;;;;;;;;21.90;99.90;;;;;;8383598;28;20623;-65
2021/09/25 16:58:22;;;;;;;;;;;21.70;99.90;;;;;;8375523;28;20268;-65
2021/09/25 17:02:23;;;;;;;;;;;21.30;99.90;;;;;;8366193;28;19909;-65
2021/09/25 17:06:23;;;;;;;;;;;20.70;99.90;;;;;;8373837;28;20508;-65
2021/09/25 17:10:27;;;;;;;;;;;20.40;99.90;;;;;;8374545;28;19966;-65
2021/09/25 17:14:27;;;;;;;;;;;20.10;99.90;;;;;;8365453;28;20287;-65
2021/09/25 17:18:27;;;;;;;;;;;20.10;99.90;;;;;;8357314;28;19912;-65
2021/09/25 17:22:28;;;;;;;;;;;20.00;99.90;;;;;;8365190;28;19967;-65
2021/09/25 17:26:28;;;;;;;;;;;19.60;99.90;;;;;;8382377;28;19912;-65
2021/09/25 17:30:29;;;;;;;;;;;19.60;99.90;;;;;;8387712;28;19916;-64
2021/09/25 17:34:29;;;;;;;;;;;19.80;99.90;;;;;;8371211;28;19916;-65
2021/09/25 17:38:30;;;;;;;;;;;19.70;99.90;;;;;;8370505;28;19905;-65
2021/09/25 17:42:30;;;;;;;;;;;19.40;99.90;;;;;;8370980;28;19912;-65
2021/09/25 17:46:31;;;;;;;;;;;19.30;99.90;;;;;;8367220;28;19920;-65
2021/09/25 17:50:32;;;;;;;;;;;;;;;;;;8363475;28;19923;-65
2021/09/25 17:54:33;;;;;;;;;;;19.30;99.90;;;;;;8368855;28;19939;-64
2021/09/25 17:58:33;;;;;;;;;;;19.00;99.90;;;;;;8370990;28;19928;-65
2021/09/25 18:02:34;;;;;;;;;;;18.90;99.90;;;;;;8366076;28;19919;-64
2021/09/25 18:06:35;;;;;;;;;;;18.70;99.90;;;;;;8377389;28;19912;-64
2021/09/25 18:10:36;;;;;;;;;;;18.60;99.90;;;;;;8365450;28;20310;-65
2021/09/25 18:14:36;;;;;;;;;;;18.80;99.90;;;;;;8363511;28;19915;-65
2021/09/25 18:18:37;;;;;;;;;;;18.70;99.90;;;;;;8369924;28;19908;-64
2021/09/25 18:22:38;;;;;;;;;;;18.60;99.90;;;;;;8368287;28;19999;-65
2021/09/25 18:26:38;;;;;;;;;;;18.80;99.90;;;;;;8366502;28;19931;-65
2021/09/25 18:30:39;;;;;;;;;;;18.60;99.90;;;;;;8375501;28;19919;-64
2021/09/25 18:34:39;;;;;;;;;;;18.70;99.90;;;;;;8371177;28;19908;-64
2021/09/25 18:38:40;;;;;;;;;;;18.50;99.90;;;;;;8381997;28;19930;-64
2021/09/25 18:42:41;;;;;;;;;;;18.30;99.90;;;;;;8372926;28;19912;-65
2021/09/25 18:46:42;;;;;;;;;;;18.20;99.90;;;;;;8367791;28;19915;-64
2021/09/25 18:50:42;;;;;;;;;;;18.50;99.90;;;;;;8368261;28;20325;-65
2021/09/25 18:54:43;;;;;;;;;;;18.30;99.90;;;;;;8363453;28;20220;-65
2021/09/25 18:58:44;;;;;;;;;;;18.60;99.90;;;;;;8373202;28;19912;-64
2021/09/25 19:02:44;;;;;;;;;;;18.40;99.90;;;;;;8377657;28;19912;-64
2021/09/25 19:06:45;;;;;;;;;;;18.50;99.90;;;;;;8373422;28;19916;-64
2021/09/25 19:10:46;;;;;;;;;;;18.30;99.90;;;;;;8375384;28;19939;-64
2021/09/25 19:14:46;;;;;;;;;;;18.00;99.90;;;;;;8373121;28;19932;-64
2021/09/25 19:18:47;;;;;;;;;;;18.20;99.90;;;;;;8369888;28;19939;-64
2021/09/25 19:22:47;;;;;;;;;;;18.10;99.90;;;;;;8369579;28;19923;-65
2021/09/25 19:26:48;;;;;;;;;;;17.90;99.90;;;;;;8371711;28;19914;-65
2021/09/25 19:30:48;;;;;;;;;;;17.70;99.90;;;;;;8375653;28;19967;-64
2021/09/25 19:34:49;;;;;;;;;;;17.90;99.90;;;;;;8376749;28;19908;-65
2021/09/25 19:38:49;;;;;;;;;;;17.70;99.90;;;;;;8376483;28;19912;-65
2021/09/25 19:42:50;;;;;;;;;;;17.50;99.90;;;;;;8370676;28;19955;-65
2021/09/25 19:46:50;;;;;;;;;;;17.50;99.90;;;;;;8370001;28;20383;-65
2021/09/25 19:50:51;;;;;;;;;;;17.50;99.90;;;;;;8366152;28;20007;-65
2021/09/25 19:54:51;;;;;;;;;;;17.50;99.90;;;;;;8372270;28;20392;-64
2021/09/25 19:58:52;;;;;;;;;;;17.90;99.90;;;;;;8385509;28;19912;-64
2021/09/25 20:02:52;;;;;;;;;;;17.70;99.90;;;;;;8392115;28;19915;-64
2021/09/25 20:06:53;;;;;;;;;;;17.60;99.90;;;;;;8390612;28;19908;-64
2021/09/25 20:10:54;;;;;;;;;;;17.70;99.90;;;;;;8368798;28;19918;-64
2021/09/25 20:14:54;;;;;;;;;;;17.70;99.90;;;;;;8373576;28;19947;-64
2021/09/25 20:18:55;;;;;;;;;;;17.80;99.90;;;;;;8374903;28;19905;-64
2021/09/25 20:23:01;;;;;;;;;;;17.50;99.90;;;;;;8371702;28;19916;-64
2021/09/25 20:27:02;;;;;;;;;;;17.70;99.90;;;;;;8376035;28;20548;-64
2021/09/25 20:31:03;;;;;;;;;;;17.60;99.90;;;;;;8376361;28;19917;-64
2021/09/25 20:35:04;;;;;;;;;;;17.50;99.90;;;;;;8375157;28;19909;-64
2021/09/25 20:39:04;;;;;;;;;;;17.20;99.90;;;;;;8375158;28;20359;-64
2021/09/25 20:43:05;;;;;;;;;;;17.20;99.90;;;;;;8371540;28;19912;-64
2021/09/25 20:47:05;;;;;;;;;;;17.10;99.90;;;;;;8370550;28;20283;-64
2021/09/25 20:51:06;;;;;;;;;;;17.40;99.90;;;;;;8368779;28;19939;-64
2021/09/25 20:55:07;;;;;;;;;;;17.40;99.90;;;;;;8373008;28;19913;-64
2021/09/25 20:59:08;;;;;;;;;;;17.30;99.90;;;;;;8373307;28;19915;-64
2021/09/25 21:03:08;;;;;;;;;;;17.10;99.90;;;;;;8372177;28;19913;-64
2021/09/25 21:07:09;;;;;;;;;;;17.40;99.90;;;;;;8373443;28;19913;-64
2021/09/25 21:11:10;;;;;;;;;;;17.20;99.90;;;;;;8374077;28;19912;-64
2021/09/25 21:15:11;;;;;;;;;;;17.20;99.90;;;;;;8372174;28;19909;-64
2021/09/25 21:19:11;;;;;;;;;;;17.20;99.90;;;;;;8379434;28;19931;-64
2021/09/25 21:23:12;;;;;;;;;;;17.40;99.90;;;;;;8375482;28;19938;-64
2021/09/25 21:27:14;;;;;;;;;;;17.20;99.90;;;;;;8368802;28;20440;-64
2021/09/25 21:31:16;;;;;;;;;;;17.20;99.90;;;;;;8366792;28;20298;-64
2021/09/25 21:35:17;;;;;;;;;;;17.10;99.90;;;;;;8363206;28;20457;-64
2021/09/25 21:39:19;;;;;;;;;;;16.90;99.90;;;;;;8359852;28;19904;-64
2021/09/25 21:43:21;;;;;;;;;;;16.90;99.90;;;;;;8361104;28;19936;-63
2021/09/25 21:47:21;;;;;;;;;;;17.10;99.90;;;;;;8359250;28;19905;-63
2021/09/25 21:51:22;;;;;;;;;;;17.00;99.90;;;;;;8361015;28;19909;-64
2021/09/25 21:55:23;;;;;;;;;;;16.90;99.90;;;;;;8360402;28;19904;-64
2021/09/25 21:59:25;;;;;;;;;;;16.90;99.90;;;;;;8360018;28;19912;-64
2021/09/25 22:03:30;;;;;;;;;;;16.90;99.90;;;;;;8358950;28;20303;-64
2021/09/25 22:07:31;;;;;;;;;;;16.90;99.90;;;;;;8360020;28;19912;-64
2021/09/25 22:11:31;;;;;;;;;;;16.90;99.90;;;;;;8359932;28;19912;-64
2021/09/25 22:15:32;;;;;;;;;;;17.00;99.90;;;;;;8358383;28;19904;-64
2021/09/25 22:19:32;;;;;;;;;;;17.00;99.90;;;;;;8358776;28;19911;-64
2021/09/25 22:23:34;;;;;;;;;;;17.00;99.90;;;;;;8359749;28;19991;-64
2021/09/25 22:27:35;;;;;;;;;;;17.10;99.90;;;;;;8359626;28;19905;-63
2021/09/25 22:31:36;;;;;;;;;;;17.00;99.90;;;;;;8359793;28;19909;-63
2021/09/25 22:35:50;;;;;;;;;;;16.90;99.90;;;;;;8358837;28;19958;-63
2021/09/25 22:39:51;;;;;;;;;;;16.80;99.90;;;;;;8358846;28;19908;-64
2021/09/25 22:43:51;;;;;;;;;;;17.00;99.90;;;;;;8359330;28;20030;-63
2021/09/25 22:47:52;;;;;;;;;;;16.90;99.90;;;;;;8359015;28;20326;-63
2021/09/25 22:51:52;;;;;;;;;;;17.10;99.90;;;;;;8359399;28;19962;-63
2021/09/25 22:55:53;;;;;;;;;;;17.20;99.90;;;;;;8358979;28;19905;-63
2021/09/25 22:59:54;;;;;;;;;;;16.90;99.90;;;;;;8358850;28;19936;-63
2021/09/25 23:03:55;;;;;;;;;;;16.80;99.90;;;;;;8358713;28;19911;-63
2021/09/25 23:07:55;;;;;;;;;;;16.90;99.90;;;;;;8359026;28;19905;-64
2021/09/25 23:11:56;;;;;;;;;;;16.80;99.90;;;;;;8358870;28;20489;-64
2021/09/25 23:15:56;;;;;;;;;;;16.70;99.90;;;;;;8358670;28;19905;-64
2021/09/25 23:19:57;;;;;;;;;;;16.70;99.90;;;;;;8358762;28;19905;-64
2021/09/25 23:23:57;;;;;;;;;;;16.50;99.90;;;;;;8358495;28;19939;-63
2021/09/25 23:27:58;;;;;;;;;;;16.60;99.90;;;;;;8358520;28;19912;-63
2021/09/25 23:31:58;;;;;;;;;;;17.00;99.90;;;;;;8358881;28;19916;-63